Time;durP1;ratioP1;P1;durP2;ratioP2;P2;SDS_P1;SDS_P2;PMS_P1;PMS_P2;Temp;Humidity;BMP_temperature;BMP_pressure;BME280_temperature;BME280_humidity;BME280_pressure;Samples;Min_cycle;Max_cycle;Signal;HPM_P1;HPM_P2
2022/11/14 00:01:09;;;;;;;;;;;7.00;98.00;;;;;;5020345;28;20037;-66
2022/11/14 00:03:35;;;;;;;3.63;1.98;;;7.10;98.20;;;;;;5022281;28;19918;-66
2022/11/14 00:06:05;;;;;;;5.65;2.65;;;7.10;97.80;;;;;;5019854;28;20076;-65
2022/11/14 00:08:31;;;;;;;2.92;1.98;;;7.10;98.00;;;;;;5018496;28;20046;-65
2022/11/14 00:10:56;;;;;;;;;;;7.10;98.00;;;;;;5022879;28;20041;-66
2022/11/14 00:13:22;;;;;;;4.40;2.30;;;7.20;98.10;;;;;;5020813;28;19922;-65
2022/11/14 00:15:49;;;;;;;;;;;7.20;97.70;;;;;;5015438;28;20080;-65
2022/11/14 00:18:15;;;;;;;4.05;2.08;;;7.10;97.80;;;;;;5009201;28;19939;-65
2022/11/14 00:20:41;;;;;;;4.35;2.20;;;7.10;97.90;;;;;;5007397;28;20128;-64
2022/11/14 00:23:06;;;;;;;;;;;7.00;98.10;;;;;;5009847;28;20121;-64
2022/11/14 00:25:32;;;;;;;;;;;7.00;98.30;;;;;;5007809;28;19964;-64
2022/11/14 00:27:58;;;;;;;;;;;7.00;98.60;;;;;;5009792;28;20273;-64
2022/11/14 00:30:24;;;;;;;;;;;7.20;98.70;;;;;;5008916;28;19921;-64
2022/11/14 00:32:49;;;;;;;;;;;7.30;98.20;;;;;;5010420;28;19917;-65
2022/11/14 00:35:15;;;;;;;;;;;7.40;97.90;;;;;;5008187;28;20018;-65
2022/11/14 00:37:40;;;;;;;;;;;7.40;97.90;;;;;;5008866;28;19964;-65
2022/11/14 00:40:06;;;;;;;;;;;7.40;97.70;;;;;;5009380;28;19917;-65
2022/11/14 00:42:33;;;;;;;;;;;7.50;97.80;;;;;;5004208;28;20011;-65
2022/11/14 00:44:58;;;;;;;;;;;7.50;97.50;;;;;;5008793;28;19921;-66
2022/11/14 00:47:24;;;;;;;;;;;7.50;97.80;;;;;;5008131;28;20048;-66
2022/11/14 00:49:53;;;;;;;;;;;7.60;97.50;;;;;;5007164;28;19925;-66
2022/11/14 00:52:18;;;;;;;;;;;7.60;97.50;;;;;;5006973;28;19927;-65
2022/11/14 00:54:44;;;;;;;;;;;7.70;97.40;;;;;;5008293;28;19917;-66
2022/11/14 00:57:09;;;;;;;;;;;7.80;97.40;;;;;;5007709;28;20292;-66
2022/11/14 00:59:35;;;;;;;;;;;7.80;97.30;;;;;;5008265;28;20408;-66
2022/11/14 01:02:00;;;;;;;;;;;7.90;97.20;;;;;;5006481;28;19917;-66
2022/11/14 01:04:26;;;;;;;;;;;7.90;97.20;;;;;;5007696;28;19921;-66
2022/11/14 01:06:52;;;;;;;;;;;7.90;97.10;;;;;;5004739;28;19952;-66
2022/11/14 01:09:17;;;;;;;;;;;8.00;97.10;;;;;;5006990;28;19964;-66
2022/11/14 01:11:43;;;;;;;;;;;7.90;97.20;;;;;;5007703;28;20348;-66
2022/11/14 01:14:09;;;;;;;;;;;7.90;97.30;;;;;;5009000;28;19917;-65
2022/11/14 01:16:34;;;;;;;;;;;7.80;97.50;;;;;;5004882;28;19921;-65
2022/11/14 01:19:00;;;;;;;;;;;7.80;97.50;;;;;;5004939;28;19940;-66
2022/11/14 01:21:26;;;;;;;;;;;7.90;97.50;;;;;;5005533;28;20012;-66
2022/11/14 01:23:52;;;;;;;;;;;7.90;97.50;;;;;;5005902;28;20004;-66
2022/11/14 01:26:17;;;;;;;;;;;7.80;97.60;;;;;;5004519;28;19922;-64
2022/11/14 01:28:43;;;;;;;;;;;7.80;97.70;;;;;;5002560;28;20442;-64
2022/11/14 01:31:10;;;;;;;;;;;7.80;97.90;;;;;;5005491;28;19914;-65
2022/11/14 01:33:35;;;;;;;;;;;7.70;97.60;;;;;;5005785;28;19926;-65
2022/11/14 01:36:01;;;;;;;;;;;7.70;97.80;;;;;;5006058;28;20344;-64
2022/11/14 01:38:27;;;;;;;;;;;7.70;97.80;;;;;;5007349;28;19929;-65
2022/11/14 01:40:53;;;;;;;;;;;7.70;97.90;;;;;;5006361;28;20389;-65
2022/11/14 01:43:18;;;;;;;;;;;7.60;98.10;;;;;;5008779;28;19944;-65
2022/11/14 01:45:44;;;;;;;;;;;7.60;98.20;;;;;;5007082;28;19925;-65
2022/11/14 01:48:28;;;;;;;;;;;7.60;98.10;;;;;;5007277;28;19917;-64
2022/11/14 01:50:56;;;;;;;;;;;7.70;98.10;;;;;;5007325;28;19986;-66
2022/11/14 01:53:22;;;;;;;;;;;7.70;98.00;;;;;;5007609;28;19921;-65
2022/11/14 01:55:48;;;;;;;;;;;7.70;98.10;;;;;;5007392;28;19917;-65
2022/11/14 01:58:15;;;;;;;;;;;7.70;98.10;;;;;;5006794;28;19960;-64
2022/11/14 02:00:42;;;;;;;;;;;7.70;98.20;;;;;;5006487;28;20028;-65
2022/11/14 02:03:07;;;;;;;;;;;7.70;98.30;;;;;;5006266;28;19921;-65
2022/11/14 02:05:33;;;;;;;;;;;7.60;98.30;;;;;;4998662;28;19928;-65
2022/11/14 02:07:59;;;;;;;;;;;7.60;98.30;;;;;;5007085;28;19925;-66
2022/11/14 02:10:24;;;;;;;;;;;7.60;98.20;;;;;;5007297;28;19917;-66
2022/11/14 02:12:50;;;;;;;;;;;7.70;98.30;;;;;;5008202;28;20023;-66
2022/11/14 02:15:16;;;;;;;;;;;7.60;98.30;;;;;;5006753;28;20680;-65
2022/11/14 02:17:42;;;;;;;;;;;7.70;98.20;;;;;;5006620;28;20309;-64
2022/11/14 02:20:10;;;;;;;;;;;7.70;98.40;;;;;;5006072;28;19917;-65
2022/11/14 02:22:37;;;;;;;;;;;7.60;98.40;;;;;;5006334;28;20417;-65
2022/11/14 02:25:02;;;;;;;;;;;7.60;98.30;;;;;;5006296;28;19923;-66
2022/11/14 02:27:28;;;;;;;;;;;7.60;98.40;;;;;;5006250;28;19925;-66
2022/11/14 02:30:01;;;;;;;;;;;7.60;98.20;;;;;;5006829;28;19921;-66
2022/11/14 02:32:27;;;;;;;;;;;7.60;98.30;;;;;;5005241;28;20369;-65
2022/11/14 02:34:52;;;;;;;;;;;7.60;98.30;;;;;;5006576;28;19924;-65
2022/11/14 02:37:17;;;;;;;;;;;7.60;98.60;;;;;;5005552;28;20024;-65
2022/11/14 02:39:47;;;;;;;;;;;7.60;98.60;;;;;;5004136;28;19923;-65
2022/11/14 02:42:12;;;;;;;;;;;7.50;98.60;;;;;;4999461;28;19959;-65
2022/11/14 02:44:38;;;;;;;;;;;7.50;98.80;;;;;;5006721;28;19968;-65
2022/11/14 02:47:03;;;;;;;;;;;7.50;98.70;;;;;;5003705;28;19925;-66
2022/11/14 02:49:29;;;;;;;;;;;7.50;98.70;;;;;;5004774;28;19971;-66
2022/11/14 02:51:54;;;;;;;;;;;7.50;98.80;;;;;;5006569;28;19921;-66
2022/11/14 02:54:20;;;;;;;;;;;7.50;98.80;;;;;;5005508;28;20270;-65
2022/11/14 02:56:46;;;;;;;;;;;7.40;98.90;;;;;;5006102;28;19967;-66
2022/11/14 02:59:11;;;;;;;;;;;7.50;98.90;;;;;;5022102;28;19921;-65
2022/11/14 03:01:37;;;;;;;;;;;7.50;98.80;;;;;;4996262;28;20404;-65
2022/11/14 03:04:02;;;;;;;;;;;7.50;98.80;;;;;;5006527;28;19952;-66
2022/11/14 03:06:28;;;;;;;;;;;7.40;99.00;;;;;;5003869;28;20341;-65
2022/11/14 03:08:53;;;;;;;;;;;7.50;98.90;;;;;;5006002;28;19932;-66
2022/11/14 03:11:19;;;;;;;;;;;7.50;99.10;;;;;;5006991;28;19979;-66
2022/11/14 03:13:44;;;;;;;;;;;7.50;98.90;;;;;;5007084;28;20348;-66
2022/11/14 03:16:11;;;;;;;;;;;7.50;98.90;;;;;;5004500;28;20349;-66
2022/11/14 03:18:37;;;;;;;;;;;7.50;99.00;;;;;;5006156;28;19913;-66
2022/11/14 03:21:10;;;;;;;;;;;7.40;98.90;;;;;;5006639;28;19939;-66
2022/11/14 03:23:35;;;;;;;;;;;7.40;99.00;;;;;;4998166;28;19922;-65
2022/11/14 03:26:02;;;;;;;;;;;7.40;99.10;;;;;;5002707;28;20321;-66
2022/11/14 03:28:27;;;;;;;;;;;7.40;99.10;;;;;;5006151;28;20032;-66
2022/11/14 03:30:53;;;;;;;;;;;7.40;99.10;;;;;;5005380;28;20021;-66
2022/11/14 03:33:19;;;;;;;;;;;7.30;99.30;;;;;;5005383;28;20036;-66
2022/11/14 03:35:45;;;;;;;;;;;7.30;99.20;;;;;;5005869;28;20440;-67
2022/11/14 03:38:10;;;;;;;;;;;7.30;99.50;;;;;;5005881;28;19931;-66
2022/11/14 03:40:39;;;;;;;;;;;7.30;99.40;;;;;;5006661;28;20074;-65
2022/11/14 03:43:05;;;;;;;;;;;7.30;99.20;;;;;;5007916;28;19918;-65
2022/11/14 03:45:30;;;;;;;;;;;7.30;99.30;;;;;;5005971;28;20008;-65
2022/11/14 03:47:56;;;;;;;;;;;7.30;99.40;;;;;;5003996;28;19917;-65
2022/11/14 03:50:21;;;;;;;;;;;7.30;99.50;;;;;;5003305;28;19921;-66
2022/11/14 03:52:48;;;;;;;;;;;7.30;99.40;;;;;;5006728;28;20405;-66
2022/11/14 03:55:13;;;;;;;;;;;7.30;99.50;;;;;;5009180;28;20020;-65
2022/11/14 03:57:39;;;;;;;;;;;7.20;99.60;;;;;;5007092;28;19929;-65
2022/11/14 04:00:04;;;;;;;;;;;7.30;99.60;;;;;;5009778;28;19921;-65
2022/11/14 04:02:30;;;;;;;;;;;7.20;99.80;;;;;;5008540;28;20440;-65
2022/11/14 04:04:55;;;;;;;;;;;7.20;99.70;;;;;;5009294;28;19917;-65
2022/11/14 04:07:21;;;;;;;;;;;7.20;99.70;;;;;;5008417;28;19925;-64
2022/11/14 04:09:47;;;;;;;;;;;7.20;99.90;;;;;;5008239;28;20357;-65
2022/11/14 04:12:12;;;;;;;;;;;7.20;99.90;;;;;;5008225;28;19928;-64
2022/11/14 04:14:38;;;;;;;;;;;7.20;99.90;;;;;;5009328;28;19921;-65
2022/11/14 04:17:03;;;;;;;;;;;7.20;99.90;;;;;;5007987;28;19932;-65
2022/11/14 04:19:29;;;;;;;;;;;7.20;99.90;;;;;;5004664;28;19917;-65
2022/11/14 04:21:54;;;;;;;;;;;7.10;99.90;;;;;;5008227;28;20528;-66
2022/11/14 04:24:20;;;;;;;;;;;7.10;99.90;;;;;;5005805;28;19917;-66
2022/11/14 04:26:46;;;;;;;;;;;7.10;99.90;;;;;;5000574;28;19925;-65
2022/11/14 04:29:11;;;;;;;;;;;7.10;99.90;;;;;;5008489;28;19955;-65
2022/11/14 04:31:37;;;;;;;;;;;7.10;99.90;;;;;;5008385;28;20561;-65
2022/11/14 04:34:02;;;;;;;;;;;7.10;99.90;;;;;;5008516;28;19937;-65
2022/11/14 04:36:28;;;;;;;;;;;7.10;99.90;;;;;;5006698;28;19925;-64
2022/11/14 04:38:53;;;;;;;;;;;7.10;99.90;;;;;;5006321;28;20278;-64
2022/11/14 04:41:19;;;;;;;;;;;7.10;99.90;;;;;;5008617;28;20360;-65
2022/11/14 04:43:44;;;;;;;;;;;7.10;99.90;;;;;;5009685;28;20381;-65
2022/11/14 04:46:10;;;;;;;;;;;7.10;99.90;;;;;;5007107;28;19921;-65
2022/11/14 04:48:35;;;;;;;;;;;7.10;99.90;;;;;;5004961;28;19956;-65
2022/11/14 04:51:00;;;;;;;;;;;7.10;99.90;;;;;;5007090;28;19913;-65
2022/11/14 04:53:26;;;;;;;;;;;7.10;99.90;;;;;;5007547;28;19949;-65
2022/11/14 04:55:52;;;;;;;;;;;7.20;99.90;;;;;;5007443;28;20337;-64
2022/11/14 04:58:17;;;;;;;;;;;7.10;99.90;;;;;;5008056;28;20004;-64
2022/11/14 05:00:43;;;;;;;;;;;7.20;99.90;;;;;;5006322;28;19925;-65
2022/11/14 05:03:08;;;;;;;;;;;7.20;99.90;;;;;;5008521;28;19917;-65
2022/11/14 05:05:34;;;;;;;;;;;7.20;99.90;;;;;;5007321;28;20651;-64
2022/11/14 05:07:59;;;;;;;;;;;7.20;99.90;;;;;;5007517;28;19925;-66
2022/11/14 05:10:25;;;;;;;;;;;7.30;99.90;;;;;;5007908;28;20036;-65
2022/11/14 05:12:54;;;;;;;;;;;7.30;99.90;;;;;;5023968;28;20325;-64
2022/11/14 05:15:19;;;;;;;;;;;7.40;99.90;;;;;;5006118;28;19929;-65
2022/11/14 05:17:45;;;;;;;;;;;7.40;99.90;;;;;;5006878;28;19917;-65
2022/11/14 05:20:10;;;;;;;;;;;7.40;99.90;;;;;;5006716;28;19917;-65
2022/11/14 05:22:36;;;;;;;;;;;7.30;99.90;;;;;;5003936;28;19956;-65
2022/11/14 05:25:02;;;;;;;;;;;7.30;99.90;;;;;;5007762;28;20301;-65
2022/11/14 05:27:28;;;;;;;;;;;7.30;99.90;;;;;;5007338;28;19921;-65
2022/11/14 05:29:54;;;;;;;;;;;7.30;99.90;;;;;;5007518;28;19917;-66
2022/11/14 05:32:20;;;;;;;;;;;7.30;99.90;;;;;;5006285;28;19922;-66
2022/11/14 05:34:45;;;;;;;;;;;7.30;99.90;;;;;;5005511;28;20395;-66
2022/11/14 05:37:11;;;;;;;;;;;7.30;99.90;;;;;;5006317;28;19917;-65
2022/11/14 05:39:36;;;;;;;;;;;7.30;99.90;;;;;;5007396;28;20300;-66
2022/11/14 05:42:02;;;;;;;;;;;7.20;99.90;;;;;;5007601;28;20632;-66
2022/11/14 05:44:27;;;;;;;;;;;7.20;99.90;;;;;;5005640;28;19963;-64
2022/11/14 05:46:53;;;;;;;;;;;7.20;99.90;;;;;;5006323;28;19926;-65
2022/11/14 05:49:18;;;;;;;;;;;7.20;99.90;;;;;;5006209;28;19921;-66
2022/11/14 05:51:44;;;;;;;;;;;7.20;99.90;;;;;;5007024;28;19925;-63
2022/11/14 05:54:09;;;;;;;;;;;7.20;99.90;;;;;;5005391;28;19922;-58
2022/11/14 05:56:35;;;;;;;;;;;7.10;99.90;;;;;;5004743;28;19971;-65
2022/11/14 05:59:01;;;;;;;;;;;7.00;99.90;;;;;;5005303;28;20409;-63
2022/11/14 06:01:26;;;;;;;;;;;7.00;99.90;;;;;;5004897;28;19979;-63
2022/11/14 06:03:52;;;;;;;;;;;7.00;99.90;;;;;;5006845;28;19928;-64
2022/11/14 06:06:20;;;;;;;;;;;7.00;99.90;;;;;;5003014;28;19925;-64
2022/11/14 06:08:45;;;;;;;;;;;6.90;99.90;;;;;;5006098;28;19921;-65
2022/11/14 06:11:15;;;;;;;;;;;7.00;99.90;;;;;;5006424;28;19917;-63
2022/11/14 06:13:41;;;;;;;;;;;6.90;99.90;;;;;;5007570;28;19945;-63
2022/11/14 06:16:09;;;;;;;;;;;6.90;99.90;;;;;;5003510;28;20385;-63
2022/11/14 06:18:35;;;;;;;;;;;6.90;99.90;;;;;;5003187;28;19957;-65
2022/11/14 06:21:04;;;;;;;;;;;6.90;99.90;;;;;;5000705;28;19964;-62
2022/11/14 06:23:30;;;;;;;;;;;6.90;99.90;;;;;;5003609;28;19917;-63
2022/11/14 06:26:00;;;;;;;;;;;6.90;99.90;;;;;;5002322;28;19925;-63
2022/11/14 06:28:25;;;;;;;;;;;6.80;99.90;;;;;;5003691;28;19917;-65
2022/11/14 06:30:51;;;;;;;;;;;6.80;99.90;;;;;;5002606;28;20436;-64
2022/11/14 06:33:16;;;;;;;;;;;6.70;99.90;;;;;;5004896;28;19924;-65
2022/11/14 06:35:42;;;;;;;;;;;6.70;99.90;;;;;;5005622;28;19921;-65
2022/11/14 06:38:07;;;;;;;;;;;6.70;99.90;;;;;;5002316;28;19921;-67
2022/11/14 06:40:33;;;;;;;;;;;6.70;99.90;;;;;;5004698;28;20489;-65
2022/11/14 06:42:58;;;;;;;;;;;6.70;99.90;;;;;;5006621;28;19921;-63
2022/11/14 06:45:24;;;;;;;;;;;6.60;99.90;;;;;;5004624;28;19921;-66
2022/11/14 06:47:49;;;;;;;;;;;6.60;99.90;;;;;;5002614;28;20290;-66
2022/11/14 06:50:15;;;;;;;;;;;6.60;99.90;;;;;;5005017;28;19921;-63
2022/11/14 06:52:41;;;;;;;;;;;6.60;99.90;;;;;;5003523;28;19930;-64
2022/11/14 06:55:07;;;;;;;;;;;6.50;99.90;;;;;;5004805;28;19931;-65
2022/11/14 06:57:32;;;;;;;;;;;6.50;99.90;;;;;;5002446;28;19944;-65
2022/11/14 06:59:58;;;;;;;;;;;6.50;99.90;;;;;;5003317;28;19928;-63
2022/11/14 07:02:23;;;;;;;;;;;6.50;99.90;;;;;;4989334;28;19917;-68
2022/11/14 07:04:49;;;;;;;;;;;6.50;99.90;;;;;;5000573;28;19927;-65
2022/11/14 07:07:14;;;;;;;;;;;6.50;99.90;;;;;;4990712;28;20293;-64
2022/11/14 07:09:41;;;;;;;;;;;6.50;99.90;;;;;;4999991;28;19925;-66
2022/11/14 07:12:08;;;;;;;;;;;6.50;99.90;;;;;;4996818;28;19922;-67
2022/11/14 07:14:33;;;;;;;;;;;6.50;99.90;;;;;;4994838;28;19926;-66
2022/11/14 07:16:59;;;;;;;;;;;6.50;99.90;;;;;;4991896;28;19918;-66
2022/11/14 07:19:25;;;;;;;;;;;6.50;99.90;;;;;;4992098;28;19975;-67
2022/11/14 07:21:50;;;;;;;;;;;6.50;99.90;;;;;;5002184;28;20413;-68
2022/11/14 07:24:16;;;;;;;;;;;6.50;99.90;;;;;;5001988;28;19921;-67
2022/11/14 07:26:41;;;;;;;;;;;6.50;99.90;;;;;;4995731;28;19932;-67
2022/11/14 07:29:07;;;;;;;;;;;6.50;99.90;;;;;;4999719;28;19922;-66
2022/11/14 07:31:32;;;;;;;;;;;6.50;99.90;;;;;;4999362;28;20389;-67
2022/11/14 07:33:58;;;;;;;;;;;6.50;99.90;;;;;;4997385;28;20692;-67
2022/11/14 07:36:23;;;;;;;;;;;6.50;99.90;;;;;;4998949;28;20009;-66
2022/11/14 07:38:49;;;;;;;;;;;6.50;99.90;;;;;;5007949;28;19925;-66
2022/11/14 07:41:15;;;;;;;;;;;6.50;99.90;;;;;;4999947;28;19917;-67
2022/11/14 07:43:41;;;;;;;;;;;6.50;99.90;;;;;;5004911;28;19922;-66
2022/11/14 07:46:09;;;;;;;;;;;6.50;99.90;;;;;;5003123;28;20024;-67
2022/11/14 07:48:35;;;;;;;;;;;6.50;99.90;;;;;;4997311;28;20413;-67
2022/11/14 07:51:01;;;;;;;;;;;6.60;99.90;;;;;;5003087;28;19931;-67
2022/11/14 07:53:27;;;;;;;;;;;6.60;99.90;;;;;;4999755;28;20634;-66
2022/11/14 07:55:53;;;;;;;;;;;6.70;99.90;;;;;;4994105;28;19961;-66
2022/11/14 07:58:19;;;;;;;;;;;6.70;99.90;;;;;;5004788;28;19968;-65
2022/11/14 08:00:44;;;;;;;;;;;6.80;99.90;;;;;;4994034;28;19952;-65
2022/11/14 08:03:11;;;;;;;;;;;6.90;99.90;;;;;;4999610;28;19920;-66
2022/11/14 08:05:36;;;;;;;;;;;7.00;99.90;;;;;;4992978;28;20751;-66
2022/11/14 08:08:02;;;;;;;;;;;7.00;99.90;;;;;;5006444;28;20442;-66
2022/11/14 08:10:28;;;;;;;;;;;7.10;99.90;;;;;;5002850;28;19922;-66
2022/11/14 08:13:01;;;;;;;;;;;7.10;99.90;;;;;;5002279;28;20569;-66
2022/11/14 08:15:27;;;;;;;;;;;7.20;99.90;;;;;;4999989;28;20344;-66
2022/11/14 08:17:57;;;;;;;;;;;7.20;99.90;;;;;;5002096;28;19917;-62
2022/11/14 08:20:22;;;;;;;;;;;7.20;99.90;;;;;;4994355;28;19917;-62
2022/11/14 08:22:48;;;;;;;;;;;7.10;99.90;;;;;;4993385;28;20324;-62
2022/11/14 08:25:13;;;;;;;;;;;7.20;99.90;;;;;;4994737;28;20309;-62
2022/11/14 08:27:39;;;;;;;;;;;7.10;99.90;;;;;;4998276;28;19925;-63
2022/11/14 08:30:05;;;;;;;;;;;7.10;99.90;;;;;;4999131;28;20008;-65
2022/11/14 08:32:30;;;;;;;;;;;7.10;99.90;;;;;;5005605;28;19928;-66
2022/11/14 08:34:56;;;;;;;;;;;7.10;99.90;;;;;;5002137;28;19921;-66
2022/11/14 08:37:21;;;;;;;;;;;7.10;99.90;;;;;;4990917;28;19988;-67
2022/11/14 08:39:47;;;;;;;;;;;7.20;99.90;;;;;;4999428;28;19917;-66
2022/11/14 08:42:13;;;;;;;;;;;7.10;99.90;;;;;;4996872;28;20325;-67
2022/11/14 08:44:38;;;;;;;;;;;7.10;99.90;;;;;;4994534;28;20219;-67
2022/11/14 08:47:04;;;;;;;;;;;7.10;99.90;;;;;;4995776;28;20573;-66
2022/11/14 08:49:30;;;;;;;;;;;7.00;99.90;;;;;;4998399;28;19918;-64
2022/11/14 08:51:55;;;;;;;;;;;7.10;99.90;;;;;;4992766;28;19917;-64
2022/11/14 08:54:21;;;;;;;;;;;7.20;99.90;;;;;;5003301;28;19976;-64
2022/11/14 08:56:46;;;;;;;;;;;7.00;99.90;;;;;;4996300;28;20535;-64
2022/11/14 08:59:12;;;;;;;;;;;6.90;99.90;;;;;;5000454;28;19929;-64
2022/11/14 09:01:38;;;;;;;;;;;6.80;99.90;;;;;;5017134;28;20198;-64
2022/11/14 09:04:03;;;;;;;;;;;6.80;99.90;;;;;;5027971;28;19920;-64
2022/11/14 09:06:29;;;;;;;;;;;6.80;99.90;;;;;;5027154;28;19920;-64
2022/11/14 09:08:55;;;;;;;;;;;6.90;99.90;;;;;;5026571;28;19924;-64
2022/11/14 09:11:21;;;;;;;;;;;6.80;99.90;;;;;;5027508;28;19956;-64
2022/11/14 09:13:46;;;;;;;;;;;6.70;99.90;;;;;;5027737;28;19925;-64
2022/11/14 09:16:12;;;;;;;;;;;6.80;99.90;;;;;;5026206;28;20591;-66
2022/11/14 09:18:38;;;;;;;;;;;6.90;99.90;;;;;;5025477;28;19921;-64
2022/11/14 09:21:04;;;;;;;;;;;6.90;99.90;;;;;;5025393;28;20456;-64
2022/11/14 09:23:30;;;;;;;;;;;6.90;99.90;;;;;;5026956;28;19917;-63
2022/11/14 09:25:56;;;;;;;;;;;6.90;99.90;;;;;;5026429;28;19913;-64
2022/11/14 09:28:22;;;;;;;;;;;6.90;99.90;;;;;;5023110;28;19921;-63
2022/11/14 09:30:48;;;;;;;;;;;6.80;99.90;;;;;;5025275;28;19913;-64
2022/11/14 09:33:13;;;;;;;;;;;6.90;99.90;;;;;;5036997;28;19927;-62
2022/11/14 09:35:40;;;;;;;;;;;6.80;99.90;;;;;;5024409;28;19993;-63
2022/11/14 09:38:07;;;;;;;;;;;6.90;99.90;;;;;;5015925;28;20408;-62
2022/11/14 09:41:05;;;;;;;;;;;6.90;99.90;;;;;;5023218;28;19939;-63
2022/11/14 09:43:42;;;;;;;;;;;7.00;99.90;;;;;;4998101;28;19924;-63
2022/11/14 09:46:26;;;;;;;;;;;6.90;99.90;;;;;;5016849;28;19972;-63
2022/11/14 09:48:52;;;;;;;;;;;7.00;99.90;;;;;;5019289;28;20389;-63
2022/11/14 09:51:26;;;;;;;;;;;6.80;99.90;;;;;;5008830;28;19917;-63
2022/11/14 09:53:54;;;;;;;;;;;6.90;99.90;;;;;;5026811;28;20622;-64
2022/11/14 09:56:24;;;;;;;;;;;6.90;99.90;;;;;;5021369;28;19923;-63
2022/11/14 09:58:50;;;;;;;;;;;6.70;99.90;;;;;;5027045;28;19913;-64
2022/11/14 10:01:24;;;;;;;;;;;6.40;99.90;;;;;;5036296;28;20043;-63
2022/11/14 10:03:57;;;;;;;;;;;6.40;99.90;;;;;;5024072;28;20511;-64
2022/11/14 10:06:34;;;;;;;;;;;6.50;99.90;;;;;;5021672;28;19921;-63
2022/11/14 10:09:15;;;;;;;;;;;6.40;99.90;;;;;;5020535;28;20296;-63
2022/11/14 10:11:51;;;;;;;;;;;6.60;99.90;;;;;;5022077;28;19944;-62
2022/11/14 10:14:34;;;;;;;;;;;6.60;99.90;;;;;;5013895;28;19937;-63
2022/11/14 10:17:20;;;;;;;;;;;6.60;99.90;;;;;;5020859;28;19917;-63
2022/11/14 10:19:48;;;;;;;;;;;6.40;99.90;;;;;;5022609;28;19921;-63
2022/11/14 10:22:14;;;;;;;;;;;6.40;99.90;;;;;;5014745;28;19928;-63
2022/11/14 10:24:47;;;;;;;;;;;6.40;99.90;;;;;;5023971;28;19921;-63
2022/11/14 10:27:23;;;;;;;;;;;6.50;99.90;;;;;;5017507;28;20316;-63
2022/11/14 10:30:04;;;;;;;;;;;6.60;99.90;;;;;;5021334;28;19978;-64
2022/11/14 10:32:46;;;;;;;;;;;6.50;99.90;;;;;;5036582;28;20330;-64
2022/11/14 10:35:11;;;;;;;;;;;6.70;99.90;;;;;;5007179;28;19979;-63
2022/11/14 10:37:44;;;;;;;;;;;6.80;99.90;;;;;;5020411;28;20410;-64
2022/11/14 10:40:15;;;;;;;;;;;6.90;99.90;;;;;;5027821;28;19917;-63
2022/11/14 10:42:43;;;;;;;;;;;7.20;99.90;;;;;;5036207;28;19925;-63
2022/11/14 10:45:27;;;;;;;;;;;7.50;99.90;;;;;;5006549;28;20059;-63
2022/11/14 10:47:58;;;;;;;;;;;7.70;99.90;;;;;;5015532;28;20020;-63
2022/11/14 10:50:26;;;;;;;;;;;8.00;99.90;;;;;;5015786;28;19921;-63
2022/11/14 10:52:55;;;;;;;;;;;8.20;99.90;;;;;;5030092;28;19917;-64
2022/11/14 10:55:23;;;;;;;;;;;8.40;99.90;;;;;;5020970;28;19962;-64
2022/11/14 10:57:48;;;;;;;;;;;8.60;99.90;;;;;;5029993;28;19932;-62
2022/11/14 11:00:15;;;;;;;;;;;8.80;99.90;;;;;;5025458;28;19918;-63
2022/11/14 11:02:49;;;;;;;;;;;9.00;99.90;;;;;;5025433;28;19920;-62
2022/11/14 11:05:16;;;;;;;;;;;9.20;99.90;;;;;;5027817;28;19920;-62
2022/11/14 11:13:28;;;;;;;;;;;9.30;99.90;;;;;;5021992;28;19921;-64
2022/11/14 11:15:55;;;;;;;;;;;9.00;99.90;;;;;;5027158;28;20498;-64
2022/11/14 11:18:28;;;;;;;;;;;8.80;99.90;;;;;;5024309;28;19967;-63
2022/11/14 11:21:13;;;;;;;;;;;8.60;99.90;;;;;;5047019;28;19923;-62
2022/11/14 11:23:48;;;;;;;;;;;8.40;99.90;;;;;;5037030;28;19917;-63
2022/11/14 11:26:19;;;;;;;;;;;8.40;99.90;;;;;;5025761;28;20348;-63
2022/11/14 11:28:59;;;;;;;;;;;8.50;99.90;;;;;;5020953;28;19925;-63
2022/11/14 11:31:25;;;;;;;;;;;8.40;99.90;;;;;;5013069;28;19917;-64
2022/11/14 11:33:50;;;;;;;;;;;8.20;99.90;;;;;;5020644;28;20038;-63
2022/11/14 11:36:22;;;;;;;;;;;8.10;99.90;;;;;;5030233;28;20329;-64
2022/11/14 11:38:48;;;;;;;;;;;8.00;99.90;;;;;;5023412;28;19944;-64
2022/11/14 11:41:22;;;;;;;;;;;7.90;99.90;;;;;;5024419;28;19917;-64
2022/11/14 11:43:55;;;;;;;;;;;7.80;99.90;;;;;;5025258;28;19923;-64
2022/11/14 11:46:28;;;;;;;;;;;7.90;99.90;;;;;;5026045;28;19964;-63
2022/11/14 11:49:00;;;;;;;;;;;8.00;99.90;;;;;;5022190;28;19924;-62
2022/11/14 11:51:26;;;;;;;;;;;8.10;99.90;;;;;;5015421;28;20400;-62
2022/11/14 11:54:02;;;;;;;;;;;8.00;99.90;;;;;;5022210;28;19960;-62
2022/11/14 11:56:31;;;;;;;;;;;8.00;99.90;;;;;;5013996;28;19921;-62
2022/11/14 11:59:09;;;;;;;;;;;8.10;99.90;;;;;;5023115;28;19917;-63
2022/11/14 12:01:34;;;;;;;;;;;8.20;99.90;;;;;;5015308;28;19913;-62
2022/11/14 12:04:00;;;;;;;;;;;8.20;99.90;;;;;;5022593;28;19917;-63
2022/11/14 12:06:28;;;;;;;;;;;8.30;99.90;;;;;;5014602;28;19921;-62
2022/11/14 12:09:02;;;;;;;;;;;8.20;99.90;;;;;;5015084;28;19949;-62
2022/11/14 12:11:29;;;;;;;;;;;7.80;99.90;;;;;;5014196;28;19921;-63
2022/11/14 12:19:28;;;;;;;;;;;7.50;99.90;;;;;;4986583;28;19948;-63
2022/11/14 12:21:59;;;;;;;;;;;7.50;99.90;;;;;;5001551;28;20017;-62
2022/11/14 12:24:45;;;;;;;;;;;7.60;99.90;;;;;;5005983;28;20028;-63
2022/11/14 12:27:13;;;;;;;;;;;7.50;99.90;;;;;;5006106;28;20304;-63
2022/11/14 12:29:45;;;;;;;;;;;7.40;99.90;;;;;;4998098;28;20401;-62
2022/11/14 12:32:13;;;;;;;;;;;7.10;99.90;;;;;;4985857;28;20293;-63
2022/11/14 12:34:40;;;;;;;;;;;7.20;99.90;;;;;;4996018;28;19917;-62
2022/11/14 12:37:08;;;;;;;;;;;7.20;99.90;;;;;;4989208;28;19975;-63
2022/11/14 12:39:34;;;;;;;;;;;7.20;99.90;;;;;;5000572;28;19926;-63
2022/11/14 12:42:01;;;;;;;;;;;7.20;99.90;;;;;;4996177;28;19921;-63
2022/11/14 12:44:26;;;;;;;;;;;7.10;99.90;;;;;;5005266;28;19925;-63
2022/11/14 12:47:04;;;;;;;;;;;7.20;99.90;;;;;;4996724;28;19925;-62
2022/11/14 12:49:48;;;;;;;;;;;7.10;99.90;;;;;;4988571;28;19922;-63
2022/11/14 12:52:33;;;;;;;;;;;7.10;99.90;;;;;;5000803;28;19921;-63
2022/11/14 12:54:58;;;;;;;;;;;7.00;99.90;;;;;;4999028;28;20533;-63
2022/11/14 12:57:46;;;;;;;;;;;7.00;99.90;;;;;;4984751;28;19921;-62
2022/11/14 13:00:12;;;;;;;;;;;7.10;99.90;;;;;;4987945;28;20011;-62
2022/11/14 13:03:07;;;;;;;;;;;7.00;99.90;;;;;;5001700;28;19964;-62
2022/11/14 13:05:39;;;;;;;;;;;7.10;99.90;;;;;;4973380;28;20312;-62
2022/11/14 13:08:25;;;;;;;;;;;7.20;99.90;;;;;;5001783;28;20012;-63
2022/11/14 13:10:51;;;;;;;;;;;7.20;99.90;;;;;;4994332;28;19922;-64
2022/11/14 13:22:09;;;;;;;;;;;7.00;99.90;;;;;;4977190;28;20509;-63
2022/11/14 13:24:54;;;;;;;;;;;7.00;99.90;;;;;;5002378;28;19921;-63
2022/11/14 13:27:26;;;;;;;;;;;7.00;99.90;;;;;;4990251;28;19930;-63
2022/11/14 13:29:52;;;;;;;;;;;7.10;99.90;;;;;;4987256;28;19983;-63
2022/11/14 13:32:36;;;;;;;;;;;7.10;99.90;;;;;;4986408;28;19975;-63
2022/11/14 13:35:03;;;;;;;;;;;7.20;99.90;;;;;;5000609;28;19925;-63
2022/11/14 13:37:32;;;;;;;;;;;7.30;99.90;;;;;;4992385;28;20233;-63
2022/11/14 13:39:57;;;;;;;;;;;7.30;99.90;;;;;;4996485;28;20012;-63
2022/11/14 13:42:26;;;;;;;;;;;7.40;99.90;;;;;;4998781;28;19917;-63
2022/11/14 13:45:03;;;;;;;;;;;7.40;99.90;;;;;;5005939;28;19944;-63
2022/11/14 13:47:52;;;;;;;;;;;7.40;99.90;;;;;;4996291;28;19922;-63
2022/11/14 13:50:23;;;;;;;;;;;7.40;99.90;;;;;;4989082;28;20205;-63
2022/11/14 13:52:49;;;;;;;;;;;7.30;99.90;;;;;;5002620;28;19955;-63
2022/11/14 13:55:21;;;;;;;;;;;7.20;99.90;;;;;;4988795;28;19969;-63
2022/11/14 13:58:01;;;;;;;;;;;7.10;99.90;;;;;;4988380;28;19984;-63
2022/11/14 14:00:28;;;;;;;;;;;7.10;99.90;;;;;;4978396;28;19929;-62
2022/11/14 14:03:14;;;;;;;;;;;7.10;99.90;;;;;;5002943;28;19968;-63
2022/11/14 14:05:46;;;;;;;;;;;7.20;99.90;;;;;;4994054;28;19921;-62
2022/11/14 14:08:50;;;;;;;;;;;7.20;99.90;;;;;;4998515;28;21213;-62
2022/11/14 14:11:34;;;;;;;;;;;7.20;99.90;;;;;;4942495;28;20643;-63
2022/11/14 14:14:22;;;;;;;;;;;7.30;99.90;;;;;;4942663;28;19922;-58
2022/11/14 14:16:52;;;;;;;;;;;7.30;99.90;;;;;;4975319;28;20399;-63
2022/11/14 14:19:28;;;;;;;;;;;7.30;99.90;;;;;;4988297;28;19921;-63
2022/11/14 14:22:02;;;;;;;;;;;7.30;99.90;;;;;;4986166;28;19918;-63
2022/11/14 14:24:31;;;;;;;;;;;7.30;99.90;;;;;;4999558;28;19924;-63
2022/11/14 14:27:15;;;;;;;;;;;7.40;99.90;;;;;;4993205;28;20288;-62
2022/11/14 14:29:47;;;;;;;;;;;7.40;99.90;;;;;;4991516;28;19928;-63
2022/11/14 14:32:14;;;;;;;;;;;7.40;99.90;;;;;;4985629;28;19943;-62
2022/11/14 14:34:42;;;;;;;;;;;7.40;99.90;;;;;;4987196;28;19918;-62
2022/11/14 14:37:15;;;;;;;;;;;7.40;99.90;;;;;;4987579;28;20349;-62
2022/11/14 14:39:53;;;;;;;;;;;7.40;99.90;;;;;;4991779;28;19975;-62
2022/11/14 14:42:20;;;;;;;;;;;7.50;99.90;;;;;;4992091;28;20057;-63
2022/11/14 14:44:47;;;;;;;;;;;7.50;99.90;;;;;;4993549;28;19933;-63
2022/11/14 14:47:31;;;;;;;;;;;7.50;99.90;;;;;;4993629;28;19929;-63
2022/11/14 14:49:57;;;;;;;;;;;7.50;99.90;;;;;;4982144;28;19925;-63
2022/11/14 14:52:35;;;;;;;;;;;7.50;99.90;;;;;;4993262;28;19937;-63
2022/11/14 14:55:01;;;;;;;;;;;7.50;99.90;;;;;;4987113;28;20667;-63